createdAt,value
2023-04-11T00:00:16.467Z,3.10
2023-04-11T00:02:43.831Z,3.15
2023-04-11T00:05:11.153Z,3.38
2023-04-11T00:07:38.494Z,3.05
2023-04-11T00:10:07.474Z,3.13
2023-04-11T00:12:34.545Z,3.28
2023-04-11T00:15:01.609Z,3.22
2023-04-11T00:17:31.597Z,3.45
2023-04-11T00:20:01.825Z,3.20
2023-04-11T00:22:29.065Z,3.17
2023-04-11T00:24:56.131Z,2.88
2023-04-11T00:27:23.310Z,2.47
2023-04-11T00:29:50.544Z,2.63
2023-04-11T00:32:17.678Z,2.60
2023-04-11T00:34:44.705Z,2.72
2023-04-11T00:37:12.930Z,2.53
2023-04-11T00:39:40.486Z,2.63
2023-04-11T00:42:08.828Z,2.47
2023-04-11T00:44:36.556Z,2.90
2023-04-11T00:47:06.936Z,2.70
2023-04-11T00:49:34.738Z,2.40
2023-04-11T00:52:04.942Z,2.90
2023-04-11T00:54:32.201Z,2.75
2023-04-11T00:57:04.408Z,2.72
2023-04-11T00:59:33.259Z,2.75
2023-04-11T01:02:01.662Z,2.67
2023-04-11T01:04:32.886Z,2.90
2023-04-11T01:07:06.449Z,3.05
2023-04-11T01:09:35.515Z,2.63
2023-04-11T01:12:04.068Z,2.40
2023-04-11T01:14:31.338Z,2.70
2023-04-11T01:17:02.455Z,2.50
2023-04-11T01:19:30.493Z,2.25
2023-04-11T01:21:59.220Z,2.13
2023-04-11T01:24:26.906Z,2.55
2023-04-11T01:26:54.806Z,2.58
2023-04-11T01:29:22.012Z,2.50
2023-04-11T01:31:51.742Z,2.70
2023-04-11T01:34:20.185Z,2.70
2023-04-11T01:36:48.436Z,2.35
2023-04-11T01:39:15.899Z,2.92
2023-04-11T01:41:43.969Z,2.65
2023-04-11T01:44:11.347Z,2.50
2023-04-11T01:46:38.562Z,2.53
2023-04-11T01:49:07.841Z,2.25
2023-04-11T01:51:36.279Z,2.50
2023-04-11T01:54:03.581Z,2.53
2023-04-11T01:56:30.620Z,2.40
2023-04-11T01:58:59.257Z,2.33
2023-04-11T02:01:26.778Z,2.83
2023-04-11T02:03:54.134Z,2.58
2023-04-11T02:06:21.322Z,2.70
2023-04-11T02:08:48.482Z,2.97
2023-04-11T02:11:15.554Z,2.90
2023-04-11T02:13:42.615Z,2.75
2023-04-11T02:16:15.548Z,2.78
2023-04-11T02:18:45.820Z,2.67
2023-04-11T02:21:13.294Z,2.60
2023-04-11T02:23:40.526Z,2.72
2023-04-11T02:26:07.687Z,2.95
2023-04-11T02:28:36.631Z,2.75
2023-04-11T02:31:04.234Z,2.78
2023-04-11T02:33:31.468Z,3.13
2023-04-11T02:35:58.642Z,2.65
2023-04-11T02:38:25.848Z,3.05
2023-04-11T02:40:53.030Z,3.00
2023-04-11T02:43:20.204Z,2.92
2023-04-11T02:45:47.388Z,2.72
2023-04-11T02:48:15.203Z,2.83
2023-04-11T02:50:42.261Z,2.53
2023-04-11T02:53:09.328Z,2.92
2023-04-11T02:55:36.384Z,2.80
2023-04-11T02:58:03.528Z,2.78
2023-04-11T03:00:30.613Z,3.05
2023-04-11T03:02:59.232Z,2.95
2023-04-11T03:05:26.431Z,2.95
2023-04-11T03:07:53.504Z,2.63
2023-04-11T03:10:20.728Z,3.10
2023-04-11T03:12:47.770Z,3.13
2023-04-11T03:15:15.721Z,2.95
2023-04-11T03:17:42.877Z,2.90
2023-04-11T03:20:13.820Z,3.05
2023-04-11T03:22:41.042Z,2.53
2023-04-11T03:25:08.843Z,2.83
2023-04-11T03:27:36.002Z,2.75
2023-04-11T03:30:03.995Z,2.78
2023-04-11T03:32:31.144Z,3.30
2023-04-11T03:35:02.023Z,3.15
2023-04-11T03:37:29.020Z,2.93
2023-04-11T03:39:56.188Z,3.25
2023-04-11T03:42:23.300Z,3.22
2023-04-11T03:44:50.479Z,2.92
2023-04-11T03:47:17.669Z,2.85
2023-04-11T03:49:44.726Z,3.10
2023-04-11T03:52:12.783Z,2.80
2023-04-11T03:54:39.864Z,2.80
2023-04-11T03:57:06.890Z,3.28
2023-04-11T03:59:33.933Z,3.25
2023-04-11T04:02:01.119Z,3.28
2023-04-11T04:04:28.882Z,2.63
2023-04-11T04:06:57.071Z,3.03
2023-04-11T04:09:24.902Z,3.20
2023-04-11T04:11:51.983Z,3.38
2023-04-11T04:14:19.495Z,3.17
2023-04-11T04:16:46.576Z,3.78
2023-04-11T04:19:13.638Z,3.55
2023-04-11T04:21:42.073Z,4.10
2023-04-11T04:24:09.135Z,3.97
2023-04-11T04:26:38.115Z,3.92
2023-04-11T04:29:06.106Z,3.85
2023-04-11T04:31:34.230Z,4.18
2023-04-11T04:34:10.476Z,4.15
2023-04-11T04:36:47.893Z,3.72
2023-04-11T04:39:19.542Z,4.03
2023-04-11T04:41:50.068Z,3.40
2023-04-11T04:44:17.534Z,4.00
2023-04-11T04:46:45.130Z,4.22
2023-04-11T04:49:12.169Z,3.97
2023-04-11T04:51:40.612Z,4.05
2023-04-11T04:54:07.681Z,4.15
2023-04-11T04:56:34.765Z,4.32
2023-04-11T04:59:01.949Z,4.30
2023-04-11T05:01:29.185Z,4.07
2023-04-11T05:04:01.107Z,4.00
2023-04-11T05:06:31.539Z,4.55
2023-04-11T05:09:01.191Z,4.50
2023-04-11T05:11:29.682Z,4.07
2023-04-11T05:13:57.464Z,3.95
2023-04-11T05:16:24.968Z,3.60
2023-04-11T05:18:52.109Z,3.83
2023-04-11T05:21:19.694Z,3.55
2023-04-11T05:23:46.988Z,3.30
2023-04-11T05:26:14.595Z,3.60
2023-04-11T05:28:42.190Z,4.00
2023-04-11T05:31:10.455Z,3.83
2023-04-11T05:33:38.464Z,4.90
2023-04-11T05:36:07.079Z,5.47
2023-04-11T05:38:34.451Z,5.45
2023-04-11T05:41:01.564Z,5.03
2023-04-11T05:43:28.856Z,6.15
2023-04-11T05:45:57.011Z,4.55
2023-04-11T05:48:24.209Z,4.70
2023-04-11T05:50:51.514Z,4.32
2023-04-11T05:53:19.097Z,3.55
2023-04-11T05:55:46.213Z,3.70
2023-04-11T05:58:13.387Z,3.45
2023-04-11T06:00:40.701Z,3.65
2023-04-11T06:03:08.148Z,3.42
2023-04-11T06:05:36.354Z,3.45
2023-04-11T06:08:05.627Z,3.55
2023-04-11T06:10:32.924Z,3.75
2023-04-11T06:13:00.077Z,3.80
2023-04-11T06:15:27.245Z,3.95
2023-04-11T06:17:54.969Z,3.47
2023-04-11T06:20:23.941Z,3.53
2023-04-11T06:22:51.661Z,3.20
2023-04-11T06:25:21.233Z,3.35
2023-04-11T06:27:48.827Z,3.33
2023-04-11T06:30:16.016Z,3.25
2023-04-11T06:32:43.281Z,3.55
2023-04-11T06:35:10.762Z,3.78
2023-04-11T06:37:37.929Z,3.95
2023-04-11T06:40:05.973Z,3.40
2023-04-11T06:42:33.268Z,3.08
2023-04-11T06:45:01.772Z,3.22
2023-04-11T06:47:29.180Z,3.28
2023-04-11T06:49:56.905Z,3.47
2023-04-11T06:52:25.014Z,2.92
2023-04-11T06:54:53.540Z,3.05
2023-04-11T06:57:20.849Z,2.90
2023-04-11T06:59:48.055Z,2.60
2023-04-11T07:02:15.661Z,6.30
2023-04-11T07:04:42.913Z,5.43
2023-04-11T07:07:10.114Z,4.85
2023-04-11T07:09:37.339Z,4.15
2023-04-11T07:12:05.488Z,3.83
2023-04-11T07:14:32.691Z,3.47
2023-04-11T07:17:00.438Z,3.42
2023-04-11T07:19:27.608Z,3.17
2023-04-11T07:21:54.706Z,2.97
2023-04-11T07:24:22.567Z,3.15
2023-04-11T07:26:51.913Z,2.92
2023-04-11T07:29:19.434Z,3.45
2023-04-11T07:31:46.702Z,2.97
2023-04-11T07:34:13.900Z,2.92
2023-04-11T07:36:41.916Z,3.13
2023-04-11T07:39:12.347Z,2.95
2023-04-11T07:41:39.710Z,2.90
2023-04-11T07:44:07.715Z,3.10
2023-04-11T07:46:35.701Z,3.17
2023-04-11T07:49:03.076Z,2.85
2023-04-11T07:51:30.189Z,2.92
2023-04-11T07:53:57.576Z,2.90
2023-04-11T07:56:24.789Z,2.88
2023-04-11T07:58:52.000Z,2.85
2023-04-11T08:01:27.070Z,2.88
2023-04-11T08:03:56.174Z,2.70
2023-04-11T08:06:23.720Z,2.75
2023-04-11T08:08:51.748Z,2.80
2023-04-11T08:11:19.052Z,2.72
2023-04-11T08:13:46.247Z,2.63
2023-04-11T08:16:16.222Z,3.20
2023-04-11T08:18:43.467Z,2.80
2023-04-11T08:21:11.813Z,3.00
2023-04-11T08:23:39.881Z,3.10
2023-04-11T08:26:08.669Z,3.00
2023-04-11T08:28:36.342Z,3.42
2023-04-11T08:31:05.020Z,3.65
2023-04-11T08:33:32.195Z,3.25
2023-04-11T08:35:59.286Z,2.67
2023-04-11T08:38:26.466Z,1.67
2023-04-11T08:40:54.909Z,1.60
2023-04-11T08:43:22.656Z,1.40
2023-04-11T08:45:50.061Z,1.17
2023-04-11T08:48:19.530Z,1.10
2023-04-11T08:50:46.581Z,0.90
2023-04-11T08:53:15.355Z,1.08
2023-04-11T08:55:48.880Z,0.95
2023-04-11T08:58:16.284Z,0.93
2023-04-11T09:00:43.967Z,0.93
2023-04-11T09:03:16.318Z,1.00
2023-04-11T09:05:47.205Z,0.73
2023-04-11T09:08:16.627Z,0.90
2023-04-11T09:10:45.662Z,0.90
2023-04-11T09:13:27.140Z,0.77
2023-04-11T09:16:20.694Z,0.85
2023-04-11T09:18:47.783Z,0.93
2023-04-11T09:21:19.309Z,0.90
2023-04-11T09:23:46.582Z,0.90
2023-04-11T09:26:30.605Z,0.75
2023-04-11T09:28:57.913Z,0.82
2023-04-11T09:31:45.035Z,0.90
2023-04-11T09:34:13.485Z,0.60
2023-04-11T09:36:40.731Z,0.80
2023-04-11T09:39:20.550Z,0.98
2023-04-11T09:41:47.894Z,0.75
2023-04-11T09:44:15.492Z,1.00
2023-04-11T09:47:00.100Z,0.80
2023-04-11T09:49:27.952Z,0.85
2023-04-11T09:51:56.470Z,0.90
2023-04-11T09:54:23.864Z,0.90
2023-04-11T09:56:51.080Z,0.98
2023-04-11T09:59:19.364Z,0.95
2023-04-11T10:01:47.349Z,0.80
2023-04-11T10:04:14.595Z,0.90
2023-04-11T10:07:02.174Z,0.80
2023-04-11T10:09:31.354Z,0.98
2023-04-11T10:11:58.638Z,1.40
2023-04-11T10:14:45.203Z,1.40
2023-04-11T10:17:23.216Z,1.42
2023-04-11T10:19:57.732Z,1.40
2023-04-11T10:22:46.699Z,1.35
2023-04-11T10:25:18.812Z,1.50
2023-04-11T10:27:48.882Z,1.25
2023-04-11T10:30:16.616Z,1.30
2023-04-11T10:33:30.764Z,1.30
2023-04-11T10:36:03.768Z,1.10
2023-04-11T10:38:49.413Z,1.02
2023-04-11T10:41:28.387Z,1.20
2023-04-11T10:44:20.948Z,1.60
2023-04-11T10:46:56.294Z,1.50
2023-04-11T10:49:40.519Z,1.23
2023-04-11T10:52:24.505Z,1.10
2023-04-11T10:54:53.984Z,1.63
2023-04-11T10:57:23.090Z,1.60
2023-04-11T10:59:50.310Z,1.30
2023-04-11T11:02:19.900Z,1.13
2023-04-11T11:04:47.588Z,1.00
2023-04-11T11:07:18.218Z,0.88
2023-04-11T11:09:51.162Z,0.82
2023-04-11T11:12:18.591Z,0.98
2023-04-11T11:14:47.414Z,2.58
2023-04-11T11:17:16.694Z,2.83
2023-04-11T11:19:48.117Z,4.38
2023-04-11T11:22:26.075Z,3.78
2023-04-11T11:24:53.600Z,2.10
2023-04-11T11:27:25.272Z,1.98
2023-04-11T11:29:53.313Z,1.40
2023-04-11T11:32:28.766Z,1.00
2023-04-11T11:34:57.944Z,0.95
2023-04-11T11:37:25.920Z,0.80
2023-04-11T11:39:53.413Z,0.75
2023-04-11T11:42:20.707Z,0.73
2023-04-11T11:44:48.154Z,0.80
2023-04-11T11:47:15.772Z,0.60
2023-04-11T11:49:56.195Z,0.43
2023-04-11T11:52:41.996Z,0.40
2023-04-11T11:55:29.865Z,0.50
2023-04-11T11:58:02.470Z,0.60
2023-04-11T12:00:34.975Z,0.40
2023-04-11T12:03:03.204Z,0.57
2023-04-11T12:05:33.070Z,0.60
2023-04-11T12:08:06.446Z,0.50
2023-04-11T12:10:47.137Z,0.50
2023-04-11T12:13:19.748Z,0.68
2023-04-11T12:15:58.966Z,0.80
2023-04-11T12:18:28.522Z,0.80
2023-04-11T12:20:56.057Z,0.80
2023-04-11T12:23:23.794Z,0.65
2023-04-11T12:25:51.226Z,0.60
2023-04-11T12:28:18.537Z,0.57
2023-04-11T12:30:45.778Z,0.35
2023-04-11T12:33:12.997Z,0.50
2023-04-11T12:35:40.190Z,0.75
2023-04-11T12:38:08.127Z,0.47
2023-04-11T12:40:35.572Z,0.65
2023-04-11T12:43:02.683Z,0.50
2023-04-11T12:45:29.901Z,0.50
2023-04-11T12:47:57.074Z,0.60
2023-04-11T12:50:24.496Z,0.55
2023-04-11T12:52:53.137Z,0.52
2023-04-11T12:55:21.718Z,0.55
2023-04-11T12:57:49.007Z,0.60
2023-04-11T13:00:16.885Z,0.63
2023-04-11T13:02:45.241Z,0.60
2023-04-11T13:05:15.986Z,0.30
2023-04-11T13:07:45.413Z,0.50
2023-04-11T13:10:14.140Z,0.60
2023-04-11T13:12:44.996Z,1.00
2023-04-11T13:15:17.149Z,0.60
2023-04-11T13:20:13.000Z,0.43
2023-04-11T13:22:42.014Z,0.50
2023-04-11T13:25:10.661Z,0.30
2023-04-11T13:27:39.736Z,0.50
2023-04-11T13:30:08.771Z,0.25
2023-04-11T13:32:36.373Z,0.32
2023-04-11T13:35:04.214Z,0.40
2023-04-11T13:37:31.513Z,0.30
2023-04-11T13:39:58.724Z,0.45
2023-04-11T13:42:26.132Z,0.40
2023-04-11T13:44:53.819Z,0.50
2023-04-11T13:47:21.071Z,0.52
2023-04-11T13:49:48.426Z,0.43
2023-04-11T13:52:16.170Z,0.50
2023-04-11T13:54:43.335Z,0.50
2023-04-11T13:57:10.475Z,0.60
2023-04-11T13:59:37.854Z,0.40
2023-04-11T14:02:05.061Z,0.60
2023-04-11T14:04:32.377Z,0.40
2023-04-11T14:06:59.693Z,0.40
2023-04-11T14:09:26.809Z,0.40
2023-04-11T14:11:53.928Z,0.50
2023-04-11T14:14:21.320Z,0.60
2023-04-11T14:16:50.447Z,0.50
2023-04-11T14:19:17.709Z,0.43
2023-04-11T14:21:44.970Z,0.55
2023-04-11T14:24:12.281Z,0.35
2023-04-11T14:26:39.461Z,0.50
2023-04-11T14:29:06.726Z,0.50
2023-04-11T14:31:34.121Z,0.50
2023-04-11T14:34:01.409Z,0.95
2023-04-11T14:36:28.733Z,0.60
2023-04-11T14:38:56.102Z,0.70
2023-04-11T14:41:23.524Z,0.73
2023-04-11T14:43:50.893Z,0.55
2023-04-11T14:46:18.158Z,1.10
2023-04-11T14:48:45.506Z,0.80
2023-04-11T14:51:12.726Z,0.50
2023-04-11T14:53:39.879Z,0.50
2023-04-11T14:56:07.798Z,0.50
2023-04-11T14:58:35.056Z,0.60
2023-04-11T15:01:02.427Z,1.23
2023-04-11T15:03:29.856Z,0.75
2023-04-11T15:05:57.130Z,0.70
2023-04-11T15:08:24.340Z,1.20
2023-04-11T15:10:54.824Z,2.15
2023-04-11T15:13:22.920Z,1.67
2023-04-11T15:15:50.452Z,1.60
2023-04-11T15:18:29.733Z,1.30
2023-04-11T15:20:59.462Z,2.20
2023-04-11T15:23:27.229Z,1.10
2023-04-11T15:25:57.269Z,2.30
2023-04-11T15:28:26.738Z,1.20
2023-04-11T15:30:55.605Z,2.92
2023-04-11T15:33:24.330Z,1.50
2023-04-11T15:35:58.443Z,1.20
2023-04-11T15:38:27.450Z,1.70
2023-04-11T15:40:58.673Z,0.90
2023-04-11T15:43:26.407Z,1.20
2023-04-11T15:45:54.616Z,1.48
2023-04-11T15:48:22.732Z,1.13
2023-04-11T15:50:50.902Z,0.85
2023-04-11T15:53:18.267Z,1.05
2023-04-11T15:55:47.075Z,0.80
2023-04-11T15:58:14.182Z,1.10
2023-04-11T16:00:44.914Z,0.70
2023-04-11T16:03:12.337Z,0.70
2023-04-11T16:05:43.213Z,0.50
2023-04-11T16:08:10.701Z,0.63
2023-04-11T16:10:37.796Z,0.50
2023-04-11T16:13:07.302Z,0.40
2023-04-11T16:15:34.458Z,0.43
2023-04-11T16:18:01.769Z,0.40
2023-04-11T16:20:28.975Z,0.43
2023-04-11T16:22:56.088Z,0.40
2023-04-11T16:25:23.491Z,0.65
2023-04-11T16:27:51.609Z,0.50
2023-04-11T16:30:19.209Z,0.60
2023-04-11T16:32:46.612Z,0.47
2023-04-11T16:35:13.767Z,0.60
2023-04-11T16:37:41.448Z,0.80
2023-04-11T16:40:12.224Z,0.63
2023-04-11T16:42:40.206Z,0.47
2023-04-11T16:45:09.793Z,0.40
2023-04-11T16:47:37.757Z,0.57
2023-04-11T16:50:06.037Z,0.50
2023-04-11T16:52:33.865Z,0.40
2023-04-11T16:55:01.889Z,0.50
2023-04-11T16:57:29.104Z,0.60
2023-04-11T16:59:56.247Z,0.70
2023-04-11T17:02:23.717Z,0.50
2023-04-11T17:04:51.194Z,0.60
2023-04-11T17:07:18.312Z,0.63
2023-04-11T17:09:49.164Z,0.47
2023-04-11T17:12:16.481Z,0.50
2023-04-11T17:14:44.339Z,0.50
2023-04-11T17:17:11.505Z,0.55
2023-04-11T17:19:38.630Z,0.70
2023-04-11T17:22:06.125Z,0.68
2023-04-11T17:24:33.493Z,0.70
2023-04-11T17:27:00.680Z,0.63
2023-04-11T17:29:27.966Z,0.60
2023-04-11T17:31:55.112Z,0.43
2023-04-11T17:34:22.429Z,0.68
2023-04-11T17:36:49.613Z,0.52
2023-04-11T17:39:18.077Z,0.40
2023-04-11T17:41:46.043Z,0.50
2023-04-11T17:44:13.786Z,0.47
2023-04-11T17:46:41.222Z,0.57
2023-04-11T17:49:08.571Z,0.60
2023-04-11T17:51:38.975Z,0.47
2023-04-11T17:54:10.164Z,0.40
2023-04-11T17:56:37.274Z,0.50
2023-04-11T17:59:04.382Z,0.50
2023-04-11T18:01:32.705Z,0.28
2023-04-11T18:04:01.908Z,0.93
2023-04-11T18:06:29.847Z,0.60
2023-04-11T18:08:57.022Z,0.47
2023-04-11T18:11:24.546Z,0.40
2023-04-11T18:13:51.956Z,0.32
2023-04-11T18:16:19.247Z,0.35
2023-04-11T18:18:48.400Z,0.30
2023-04-11T18:21:16.720Z,0.50
2023-04-11T18:23:44.267Z,0.50
2023-04-11T18:26:11.559Z,0.57
2023-04-11T18:28:38.948Z,0.43
2023-04-11T18:31:07.034Z,0.55
2023-04-11T18:33:38.039Z,0.60
2023-04-11T18:36:09.464Z,0.40
2023-04-11T18:38:36.580Z,0.60
2023-04-11T18:41:07.203Z,0.50
2023-04-11T18:43:35.125Z,0.60
2023-04-11T18:46:03.326Z,0.50
2023-04-11T18:48:31.855Z,0.63
2023-04-11T18:51:04.299Z,0.70
2023-04-11T18:53:31.559Z,0.70
2023-04-11T18:56:03.033Z,0.65
2023-04-11T18:58:33.532Z,6.85
2023-04-11T19:01:13.978Z,8.02
2023-04-11T19:03:42.680Z,9.20
2023-04-11T19:06:10.348Z,6.85
2023-04-11T19:08:37.509Z,3.30
2023-04-11T19:11:04.801Z,2.25
2023-04-11T19:13:31.944Z,8.05
2023-04-11T19:16:00.275Z,4.68
2023-04-11T19:18:27.385Z,4.25
2023-04-11T19:20:54.704Z,6.90
2023-04-11T19:23:22.065Z,6.85
2023-04-11T19:25:49.481Z,4.43
2023-04-11T19:28:16.713Z,6.75
2023-04-11T19:30:43.983Z,3.75
2023-04-11T19:33:11.173Z,3.42
2023-04-11T19:35:40.334Z,1.98
2023-04-11T19:38:08.053Z,5.20
2023-04-11T19:40:35.687Z,3.10
2023-04-11T19:43:03.054Z,1.90
2023-04-11T19:45:32.040Z,1.63
2023-04-11T19:48:00.374Z,1.00
2023-04-11T19:50:27.864Z,0.93
2023-04-11T19:52:57.108Z,0.70
2023-04-11T19:55:24.696Z,1.23
2023-04-11T19:57:51.849Z,2.10
2023-04-11T20:00:19.605Z,1.50
2023-04-11T20:02:48.751Z,1.33
2023-04-11T20:05:21.819Z,1.13
2023-04-11T20:07:49.032Z,1.10
2023-04-11T20:10:17.343Z,0.98
2023-04-11T20:12:44.874Z,1.00
2023-04-11T20:15:12.363Z,0.90
2023-04-11T20:17:39.644Z,0.73
2023-04-11T20:20:09.138Z,0.63
2023-04-11T20:22:38.452Z,0.60
2023-04-11T20:25:11.983Z,0.68
2023-04-11T20:27:40.900Z,0.55
2023-04-11T20:30:13.332Z,0.90
2023-04-11T20:32:41.783Z,0.80
2023-04-11T20:35:10.127Z,1.25
2023-04-11T20:37:38.276Z,0.82
2023-04-11T20:40:08.068Z,0.93
2023-04-11T20:42:35.653Z,1.10
2023-04-11T20:45:12.273Z,1.25
2023-04-11T20:47:41.084Z,1.20
2023-04-11T20:50:13.248Z,1.23
2023-04-11T20:52:42.142Z,1.20
2023-04-11T20:55:10.927Z,1.65
2023-04-11T20:57:38.392Z,1.92
2023-04-11T21:00:16.675Z,1.83
2023-04-11T21:02:46.894Z,1.90
2023-04-11T21:05:15.449Z,1.55
2023-04-11T21:07:43.349Z,1.92
2023-04-11T21:10:12.369Z,1.48
2023-04-11T21:12:39.852Z,1.75
2023-04-11T21:15:08.651Z,1.85
2023-04-11T21:17:37.400Z,1.50
2023-04-11T21:20:18.096Z,1.70
2023-04-11T21:22:55.410Z,1.47
2023-04-11T21:25:24.900Z,1.60
2023-04-11T21:27:52.156Z,1.90
2023-04-11T21:30:19.362Z,1.67
2023-04-11T21:32:46.744Z,1.90
2023-04-11T21:35:14.000Z,1.92
2023-04-11T21:37:41.182Z,1.58
2023-04-11T21:40:08.958Z,1.50
2023-04-11T21:42:36.259Z,1.50
2023-04-11T21:45:03.649Z,1.52
2023-04-11T21:47:30.772Z,1.60
2023-04-11T21:49:57.892Z,1.35
2023-04-11T21:52:25.238Z,1.40
2023-04-11T21:54:52.331Z,1.48
2023-04-11T21:57:19.435Z,1.38
2023-04-11T21:59:46.942Z,1.50
2023-04-11T22:02:14.369Z,1.08
2023-04-11T22:04:51.708Z,1.13
2023-04-11T22:07:26.637Z,1.27
2023-04-11T22:10:09.164Z,1.20
2023-04-11T22:12:37.112Z,1.10
2023-04-11T22:15:06.601Z,1.13
2023-04-11T22:17:34.017Z,1.02
2023-04-11T22:20:01.251Z,1.00
2023-04-11T22:22:29.003Z,1.00
2023-04-11T22:25:00.427Z,0.70
2023-04-11T22:27:27.644Z,0.60
2023-04-11T22:29:57.945Z,0.57
2023-04-11T22:32:25.106Z,0.50
2023-04-11T22:34:52.320Z,0.63
2023-04-11T22:37:19.483Z,1.10
2023-04-11T22:39:46.599Z,1.42
2023-04-11T22:42:13.821Z,1.30
2023-04-11T22:44:41.045Z,1.88
2023-04-11T22:47:11.532Z,1.50
2023-04-11T22:49:42.224Z,1.17
2023-04-11T22:52:15.105Z,1.35
2023-04-11T22:54:43.179Z,1.23
2023-04-11T22:57:10.673Z,1.17
2023-04-11T22:59:37.765Z,1.27
2023-04-11T23:02:04.938Z,1.20
2023-04-11T23:04:32.590Z,1.15
2023-04-11T23:07:00.070Z,1.20
2023-04-11T23:09:28.204Z,0.80
2023-04-11T23:11:55.479Z,1.10
2023-04-11T23:14:22.680Z,0.90
2023-04-11T23:16:49.920Z,1.00
2023-04-11T23:19:18.894Z,1.00
2023-04-11T23:21:46.204Z,1.00
2023-04-11T23:24:13.406Z,1.00
2023-04-11T23:26:41.107Z,0.90
2023-04-11T23:29:08.720Z,0.90
2023-04-11T23:31:36.111Z,0.90
2023-04-11T23:34:03.209Z,0.90
2023-04-11T23:36:30.402Z,1.13
2023-04-11T23:38:58.421Z,0.90
2023-04-11T23:41:25.821Z,0.80
2023-04-11T23:43:53.092Z,0.70
2023-04-11T23:46:20.781Z,0.80
2023-04-11T23:48:47.856Z,0.70
2023-04-11T23:51:16.039Z,0.70
2023-04-11T23:53:43.865Z,0.70
2023-04-11T23:56:11.087Z,0.50
2023-04-11T23:58:38.616Z,0.65
